Time;durP1;ratioP1;P1;durP2;ratioP2;P2;SDS_P1;SDS_P2;PMS_P1;PMS_P2;Temp;Humidity;BMP_temperature;BMP_pressure;BME280_temperature;BME280_humidity;BME280_pressure;Samples;Min_cycle;Max_cycle;Signal;HPM_P1;HPM_P2
2021/10/07 00:00:11;;;;;;;0.70;0.70;;;;;;;6.23;100.00;93730.69;2075011;28;20018;-91
2021/10/07 00:01:12;;;;;;;1.60;0.65;;;;;;;6.17;100.00;93732.94;2083494;28;20026;-90
2021/10/07 00:02:12;;;;;;;2.17;0.70;;;;;;;6.28;100.00;93730.34;2083250;28;20060;-90
2021/10/07 00:03:13;;;;;;;0.85;0.65;;;;;;;6.18;100.00;93731.78;2075081;28;20025;-90
2021/10/07 00:04:16;;;;;;;0.98;0.73;;;;;;;6.16;100.00;93728.00;2075518;28;20029;-90
2021/10/07 00:05:17;;;;;;;2.75;0.60;;;;;;;6.20;100.00;93728.78;2083179;28;20021;-92
2021/10/07 00:06:18;;;;;;;3.30;0.80;;;;;;;6.19;100.00;93730.69;2074912;28;20053;-90
2021/10/07 00:07:19;;;;;;;3.97;0.82;;;;;;;6.13;100.00;93726.09;2075085;28;20116;-90
2021/10/07 00:08:20;;;;;;;1.83;0.80;;;;;;;6.09;100.00;93728.72;2083151;28;20023;-90
2021/10/07 00:09:22;;;;;;;1.80;1.00;;;;;;;6.02;100.00;93726.81;2075029;28;20022;-91
2021/10/07 00:10:23;;;;;;;1.65;0.60;;;;;;;6.30;100.00;93728.81;2083066;28;20080;-90
2021/10/07 00:11:24;;;;;;;2.40;0.77;;;;;;;6.30;100.00;93725.41;2083150;28;20017;-92
2021/10/07 00:12:25;;;;;;;1.92;0.73;;;;;;;6.13;100.00;93726.09;2091159;28;20020;-91
2021/10/07 00:13:26;;;;;;;1.38;0.52;;;;;;;6.16;100.00;93728.75;2091169;28;20024;-91
2021/10/07 00:14:27;;;;;;;2.38;0.70;;;;;;;6.08;100.00;93718.47;2091257;28;20021;-91
2021/10/07 00:15:28;;;;;;;1.10;0.63;;;;;;;6.04;100.00;93732.50;2099306;28;20405;-91
2021/10/07 00:16:30;;;;;;;1.75;0.80;;;;;;;6.00;100.00;93726.41;2082831;28;20063;-90
2021/10/07 00:17:31;;;;;;;1.95;0.82;;;;;;;6.00;100.00;93723.00;2083002;28;20532;-90
2021/10/07 00:18:36;;;;;;;1.38;0.80;;;;;;;5.88;100.00;93731.97;2074910;28;20105;-90
2021/10/07 00:19:37;;;;;;;1.88;0.57;;;;;;;5.92;100.00;93727.50;2067785;28;20530;-90
2021/10/07 00:20:38;;;;;;;5.18;0.90;;;;;;;5.89;100.00;93728.22;2074766;28;20025;-90
2021/10/07 00:21:39;;;;;;;1.90;0.88;;;;;;;5.95;100.00;93729.41;2074772;28;20025;-90
2021/10/07 00:22:41;;;;;;;3.85;0.90;;;;;;;5.91;100.00;93731.25;2074728;28;20111;-91
2021/10/07 00:23:54;;;;;;;2.53;0.77;;;;;;;5.96;100.00;93722.22;2083098;28;20025;-90
2021/10/07 00:24:56;;;;;;;3.40;0.70;;;;;;;5.96;100.00;93733.56;2083164;28;20087;-91
2021/10/07 00:25:57;;;;;;;2.40;0.88;;;;;;;5.91;100.00;93731.25;2074856;28;20018;-91
2021/10/07 00:26:57;;;;;;;0.77;0.70;;;;;;;5.96;100.00;93728.28;2082983;28;20021;-91
2021/10/07 00:28:07;;;;;;;0.75;0.60;;;;;;;5.93;100.00;93729.03;2082922;28;20487;-92
2021/10/07 00:30:29;;;;;;;1.30;0.77;;;;;;;6.00;100.00;93728.28;2080026;28;20510;-91
2021/10/07 00:31:34;;;;;;;1.27;0.80;;;;;;;5.97;100.00;93731.69;2074713;28;20037;-91
2021/10/07 00:32:37;;;;;;;2.30;0.90;;;;;;;5.91;100.00;93735.78;2075649;28;20030;-89
2021/10/07 00:33:55;;;;;;;1.35;0.75;;;;;;;6.00;100.00;93730.94;2074805;28;20033;-92
2021/10/07 00:35:07;;;;;;;1.85;0.70;;;;;;;5.95;100.00;93737.38;2079688;28;20029;-90
2021/10/07 00:36:38;;;;;;;0.98;0.68;;;;;;;5.99;100.00;93730.19;2082699;28;20104;-89
2021/10/07 00:39:58;;;;;;;2.53;0.75;;;;;;;6.11;100.00;93736.34;2093977;28;20021;-90
2021/10/07 00:40:59;;;;;;;2.42;0.73;;;;;;;6.26;100.00;93728.03;2091207;28;20021;-89
2021/10/07 00:42:00;;;;;;;0.63;0.63;;;;;;;6.19;100.00;93735.22;2082948;28;20482;-91
2021/10/07 00:43:01;;;;;;;2.05;0.90;;;;;;;6.01;100.00;93732.47;2082907;28;20032;-90
2021/10/07 00:44:04;;;;;;;2.30;0.63;;;;;;;5.94;100.00;93730.56;2074699;28;20042;-90
2021/10/07 00:45:07;;;;;;;1.52;0.80;;;;;;;5.92;100.00;93743.41;2075080;28;20100;-91
2021/10/07 00:46:08;;;;;;;2.05;0.60;;;;;;;5.87;100.00;93732.38;2083219;28;20033;-89
2021/10/07 00:47:09;;;;;;;2.53;0.70;;;;;;;5.93;100.00;93737.00;2082926;28;20025;-91
2021/10/07 00:48:10;;;;;;;1.38;0.70;;;;;;;5.98;100.00;93741.19;2090945;28;20116;-90
2021/10/07 00:49:11;;;;;;;2.22;0.63;;;;;;;5.93;100.00;93733.59;2082743;28;20053;-90
2021/10/07 00:50:12;;;;;;;0.73;0.65;;;;;;;5.92;100.00;93742.66;2074911;28;20053;-89
2021/10/07 00:51:13;;;;;;;1.40;0.50;;;;;;;5.93;100.00;93737.00;2074630;28;20523;-90
2021/10/07 00:52:17;;;;;;;1.83;0.70;;;;;;;5.86;100.00;93744.88;2082727;28;20029;-91
2021/10/07 00:53:20;;;;;;;1.60;0.82;;;;;;;5.84;100.00;93741.06;2090994;28;20063;-91
2021/10/07 00:54:23;;;;;;;0.65;0.65;;;;;;;5.82;100.00;93742.19;2091408;28;20025;-90
2021/10/07 00:55:25;;;;;;;2.05;0.82;;;;;;;5.85;100.00;93737.28;2090986;28;20052;-91
2021/10/07 00:56:25;;;;;;;1.15;0.70;;;;;;;5.84;100.00;93736.53;2082937;28;20135;-90
2021/10/07 00:57:27;;;;;;;3.58;0.77;;;;;;;5.82;100.00;93742.19;2099059;28;20024;-91
2021/10/07 00:58:29;;;;;;;0.75;0.52;;;;;;;5.85;100.00;93750.56;2082656;28;20025;-90
2021/10/07 00:59:30;;;;;;;1.60;0.57;;;;;;;5.89;100.00;93738.06;2070604;28;20026;-90
2021/10/07 01:00:31;;;;;;;2.05;0.70;;;;;;;5.84;100.00;93747.16;2066465;28;20030;-90
2021/10/07 01:01:32;;;;;;;0.55;0.52;;;;;;;5.84;100.00;93749.00;2082912;28;20112;-90
2021/10/07 01:02:33;;;;;;;2.72;0.98;;;;;;;5.79;100.00;93752.78;2082574;28;20028;-90
2021/10/07 01:03:35;;;;;;;0.60;0.60;;;;;;;5.89;100.00;93746.78;2066645;28;20034;-89
2021/10/07 01:04:36;;;;;;;0.68;0.55;;;;;;;5.95;100.00;93747.97;2082811;28;20455;-90
2021/10/07 01:05:38;;;;;;;2.45;0.70;;;;;;;5.91;100.00;93741.09;2074429;28;20022;-90
2021/10/07 01:06:42;;;;;;;2.55;0.65;;;;;;;5.89;100.00;93743.38;2066354;28;20364;-92
2021/10/07 01:07:43;;;;;;;1.10;0.68;;;;;;;5.95;100.00;93739.25;2075359;28;20072;-92
2021/10/07 01:08:44;;;;;;;1.10;0.73;;;;;;;5.99;100.00;93740.03;2082603;28;20103;-91
2021/10/07 01:09:45;;;;;;;1.02;0.73;;;;;;;6.04;100.00;93740.44;2082529;28;20014;-90
2021/10/07 01:10:46;;;;;;;1.58;0.65;;;;;;;6.01;100.00;93741.22;2090953;28;20029;-90
2021/10/07 01:11:47;;;;;;;1.42;0.70;;;;;;;6.04;100.00;93740.44;2090955;28;20459;-90
2021/10/07 01:12:48;;;;;;;0.85;0.63;;;;;;;5.99;100.00;93740.81;2074492;28;20026;-90
2021/10/07 01:13:49;;;;;;;4.85;0.82;;;;;;;6.04;100.00;93740.44;2066507;28;20443;-90
2021/10/07 01:14:54;;;;;;;1.05;0.60;;;;;;;6.08;100.00;93735.16;2066747;28;20072;-90
2021/10/07 01:16:02;;;;;;;0.52;0.52;;;;;;;6.09;100.00;93742.00;2084134;28;20017;-90
2021/10/07 01:17:03;;;;;;;3.13;0.73;;;;;;;6.02;100.00;93734.75;2082774;28;20045;-90
2021/10/07 01:18:04;;;;;;;3.75;0.80;;;;;;;6.02;100.00;93732.13;2074774;28;20030;-90
2021/10/07 01:19:05;;;;;;;1.70;0.68;;;;;;;6.00;100.00;93733.59;2082844;28;20028;-89
2021/10/07 01:20:08;;;;;;;2.13;0.75;;;;;;;5.94;100.00;93722.59;2082818;28;20048;-90
2021/10/07 01:21:14;;;;;;;2.50;0.70;;;;;;;5.97;100.00;93726.38;2074680;28;20030;-90
2021/10/07 01:22:16;;;;;;;1.73;0.80;;;;;;;5.89;100.00;93727.47;2067713;28;20026;-91
2021/10/07 01:23:17;;;;;;;2.25;0.65;;;;;;;5.90;100.00;93727.09;2082649;28;20021;-91
2021/10/07 01:24:18;;;;;;;1.38;0.70;;;;;;;5.95;100.00;93726.75;2090629;28;20032;-90
2021/10/07 01:25:20;;;;;;;2.38;0.70;;;;;;;5.95;100.00;93726.00;2090535;28;20031;-91
2021/10/07 01:26:22;;;;;;;0.93;0.60;;;;;;;5.97;100.00;93729.81;2088984;28;20043;-90
2021/10/07 01:27:28;;;;;;;0.82;0.60;;;;;;;5.95;100.00;93726.75;2082479;28;20025;-91
2021/10/07 01:28:29;;;;;;;1.98;0.60;;;;;;;5.94;100.00;93732.44;2083148;28;20021;-91
2021/10/07 01:29:30;;;;;;;3.63;0.60;;;;;;;5.92;100.00;93724.06;2090694;28;20028;-91
2021/10/07 01:30:31;;;;;;;0.98;0.90;;;;;;;5.94;100.00;93727.91;2090499;28;20116;-91
2021/10/07 01:31:32;;;;;;;1.58;0.65;;;;;;;6.02;100.00;93716.19;2082350;28;20155;-90
2021/10/07 01:32:38;;;;;;;0.70;0.63;;;;;;;6.02;100.00;93736.66;2090712;28;20021;-92
2021/10/07 01:33:39;;;;;;;1.08;0.50;;;;;;;5.97;100.00;93729.81;2082996;28;20447;-90
2021/10/07 01:34:40;;;;;;;2.17;0.80;;;;;;;5.96;100.00;93733.56;2082506;28;20072;-90
2021/10/07 01:35:40;;;;;;;3.03;1.00;;;;;;;6.00;100.00;93725.63;2099075;28;20046;-91
2021/10/07 01:36:41;;;;;;;0.60;0.60;;;;;;;6.04;100.00;93734.38;2099102;28;20034;-90
2021/10/07 01:37:43;;;;;;;0.85;0.57;;;;;;;5.88;100.00;93731.22;2082382;28;20034;-90
2021/10/07 01:38:43;;;;;;;0.60;0.60;;;;;;;5.91;100.00;93725.94;2090717;28;20462;-91
2021/10/07 01:39:45;;;;;;;1.13;0.60;;;;;;;5.99;100.00;93724.13;2082499;28;20024;-91
2021/10/07 01:40:46;;;;;;;1.42;0.60;;;;;;;5.90;100.00;93719.13;2090735;28;20029;-90
2021/10/07 01:41:47;;;;;;;2.03;0.70;;;;;;;5.95;100.00;93724.09;2082835;28;20120;-90
2021/10/07 01:42:49;;;;;;;0.98;0.60;;;;;;;6.01;100.00;93722.63;2074363;28;20103;-90
2021/10/07 01:43:56;;;;;;;1.95;1.00;;;;;;;5.99;100.00;93719.56;2082755;28;20025;-90
2021/10/07 01:44:57;;;;;;;3.78;0.80;;;;;;;5.99;100.00;93729.44;2092661;28;20032;-91
2021/10/07 01:45:58;;;;;;;0.55;0.55;;;;;;;5.89;100.00;93733.53;2092868;28;20108;-90
2021/10/07 01:46:59;;;;;;;1.65;0.98;;;;;;;5.88;100.00;93725.91;2084157;28;20029;-91
2021/10/07 01:48:00;;;;;;;0.95;0.60;;;;;;;5.92;100.00;93732.03;2076278;28;20113;-91
2021/10/07 01:49:01;;;;;;;2.22;0.73;;;;;;;5.89;100.00;93735.41;2084744;28;20022;-91
2021/10/07 01:50:04;;;;;;;0.68;0.60;;;;;;;5.94;100.00;93724.47;2082890;28;20104;-89
2021/10/07 01:51:05;;;;;;;2.67;0.82;;;;;;;5.93;100.00;93731.69;2082756;28;20032;-91
2021/10/07 01:52:06;;;;;;;1.40;0.57;;;;;;;6.03;100.00;93733.63;2090753;28;20508;-92
2021/10/07 01:53:07;;;;;;;2.03;0.82;;;;;;;5.97;100.00;93724.50;2099309;28;20020;-91
2021/10/07 01:54:09;;;;;;;1.20;0.80;;;;;;;6.01;100.00;93730.59;2077437;28;20022;-90
2021/10/07 01:55:11;;;;;;;0.73;0.55;;;;;;;6.10;100.00;93737.44;2066686;28;20049;-92
2021/10/07 01:56:12;;;;;;;1.13;0.77;;;;;;;6.14;100.00;93733.66;2067258;28;20045;-90
2021/10/07 01:57:13;;;;;;;2.75;0.70;;;;;;;6.16;100.00;93731.41;2066044;28;20510;-91
2021/10/07 01:58:14;;;;;;;1.45;0.70;;;;;;;6.14;100.00;93731.00;2074213;28;20092;-92
2021/10/07 01:59:16;;;;;;;1.67;0.80;;;;;;;6.13;100.00;93726.84;2065742;28;20032;-90
2021/10/07 02:00:17;;;;;;;3.50;0.93;;;;;;;6.10;100.00;93727.59;2074339;28;20026;-91
2021/10/07 02:01:18;;;;;;;2.28;0.60;;;;;;;6.05;100.00;93731.34;2074129;28;20021;-91
2021/10/07 02:02:19;;;;;;;1.60;0.90;;;;;;;6.09;100.00;93731.38;2074301;28;20026;-90
2021/10/07 02:03:20;;;;;;;1.20;0.65;;;;;;;6.05;100.00;93736.66;2073895;28;20505;-90
2021/10/07 02:04:21;;;;;;;1.42;0.40;;;;;;;6.08;100.00;93734.41;2074122;28;20030;-90
2021/10/07 02:05:22;;;;;;;3.45;0.60;;;;;;;6.09;100.00;93735.94;2074111;28;20061;-91
2021/10/07 02:06:23;;;;;;;1.95;0.80;;;;;;;6.17;100.00;93737.50;2074043;28;20083;-91
2021/10/07 02:07:24;;;;;;;0.60;0.55;;;;;;;6.18;100.00;93731.03;2074247;28;20022;-90
2021/10/07 02:08:25;;;;;;;2.05;0.60;;;;;;;6.13;100.00;93740.13;2073916;28;20033;-90
2021/10/07 02:09:26;;;;;;;1.75;0.60;;;;;;;6.15;100.00;93734.47;2065885;28;20030;-90
2021/10/07 02:10:27;;;;;;;0.60;0.50;;;;;;;6.15;100.00;93745.84;2073978;28;20498;-92
2021/10/07 02:11:28;;;;;;;1.73;0.70;;;;;;;6.19;100.00;93740.50;2073906;28;20022;-91
2021/10/07 02:12:29;;;;;;;1.13;0.80;;;;;;;6.27;100.00;93739.41;2065931;28;20096;-90
2021/10/07 02:13:30;;;;;;;0.57;0.57;;;;;;;6.30;100.00;93742.09;2074211;28;20076;-91
2021/10/07 02:14:31;;;;;;;2.92;0.70;;;;;;;6.26;100.00;93738.66;2082194;28;20075;-91
2021/10/07 02:15:32;;;;;;;0.50;0.50;;;;;;;6.24;100.00;93740.94;2073935;28;20018;-92
2021/10/07 02:16:33;;;;;;;6.50;0.73;;;;;;;6.22;100.00;93747.75;2074085;28;20021;-91
2021/10/07 02:17:34;;;;;;;0.52;0.52;;;;;;;6.24;100.00;93740.94;2082279;28;20037;-92
2021/10/07 02:18:35;;;;;;;0.65;0.65;;;;;;;6.30;100.00;93736.03;2082310;28;20413;-90
2021/10/07 02:19:36;;;;;;;1.10;1.05;;;;;;;6.28;100.00;93743.63;2082203;28;20108;-90
2021/10/07 02:20:38;;;;;;;0.95;0.80;;;;;;;6.22;100.00;93745.09;2074235;28;20018;-92
2021/10/07 02:21:39;;;;;;;0.73;0.73;;;;;;;6.15;100.00;93745.84;2074340;28;20032;-89
2021/10/07 02:22:41;;;;;;;0.50;0.40;;;;;;;6.22;100.00;93743.19;2065783;28;20080;-91
2021/10/07 02:23:41;;;;;;;1.65;0.52;;;;;;;6.17;100.00;93738.25;2082439;28;20017;-90
2021/10/07 02:24:42;;;;;;;0.80;0.63;;;;;;;6.16;100.00;93738.63;2082284;28;20172;-91
2021/10/07 02:25:44;;;;;;;1.77;0.80;;;;;;;6.15;100.00;93747.72;2065790;28;20117;-91
2021/10/07 02:26:45;;;;;;;2.22;0.60;;;;;;;6.19;100.00;93743.97;2072150;28;20022;-92
2021/10/07 02:27:46;;;;;;;0.95;0.60;;;;;;;6.17;100.00;93740.91;2090332;28;20021;-91
2021/10/07 02:28:47;;;;;;;2.03;0.60;;;;;;;6.20;100.00;93739.41;2090369;28;20025;-89
2021/10/07 02:29:48;;;;;;;0.80;0.70;;;;;;;6.23;100.00;93738.66;2090502;28;20037;-90
2021/10/07 02:30:49;;;;;;;1.70;0.57;;;;;;;6.16;100.00;93743.94;2090323;28;20088;-91
2021/10/07 02:31:50;;;;;;;0.70;0.70;;;;;;;6.14;100.00;93743.53;2082306;28;20032;-90
2021/10/07 02:32:51;;;;;;;1.35;0.65;;;;;;;6.14;100.00;93735.56;2082211;28;20032;-91
2021/10/07 02:33:54;;;;;;;2.15;0.65;;;;;;;6.08;100.00;93727.22;2082172;28;20025;-92
2021/10/07 02:34:55;;;;;;;0.85;0.60;;;;;;;6.03;100.00;93740.84;2090811;28;20056;-91
2021/10/07 02:35:56;;;;;;;1.10;0.70;;;;;;;6.03;100.00;93732.88;2090471;28;20028;-92
2021/10/07 02:36:57;;;;;;;4.68;0.80;;;;;;;6.07;100.00;93735.53;2090645;28;20029;-92
2021/10/07 02:37:59;;;;;;;0.70;0.70;;;;;;;6.14;100.00;93741.63;2090269;28;20449;-92
2021/10/07 02:39:00;;;;;;;0.90;0.60;;;;;;;6.14;100.00;93740.88;2082399;28;20021;-92
2021/10/07 02:40:01;;;;;;;0.68;0.57;;;;;;;6.09;100.00;93736.69;2074032;28;20048;-93
2021/10/07 02:41:02;;;;;;;0.93;0.70;;;;;;;6.08;100.00;93737.06;2074298;28;20021;-92
2021/10/07 02:42:04;;;;;;;4.00;0.70;;;;;;;6.10;100.00;93737.44;2082582;28;20033;-92
2021/10/07 02:43:06;;;;;;;1.30;0.70;;;;;;;6.13;100.00;93742.00;2082557;28;20022;-93
2021/10/07 02:44:06;;;;;;;1.40;0.65;;;;;;;6.16;100.00;93733.31;2074137;28;20113;-93
2021/10/07 02:45:10;;;;;;;1.23;0.65;;;;;;;6.16;100.00;93734.06;2074079;28;20029;-93
2021/10/07 02:46:12;;;;;;;1.27;0.73;;;;;;;6.13;100.00;93740.13;2083441;28;20028;-93
2021/10/07 02:47:13;;;;;;;2.28;0.70;;;;;;;6.12;100.00;93740.50;2082419;28;20025;-94
2021/10/07 02:48:14;;;;;;;0.50;0.50;;;;;;;6.11;100.00;93737.09;2074500;28;20026;-93
2021/10/07 02:49:15;;;;;;;2.58;0.90;;;;;;;6.21;100.00;93736.38;2090857;28;20025;-93
2021/10/07 02:50:16;;;;;;;1.50;0.63;;;;;;;6.17;100.00;93734.84;2090316;28;20143;-92
2021/10/07 02:51:18;;;;;;;2.92;0.90;;;;;;;6.17;100.00;93735.59;2082284;28;20087;-93
2021/10/07 02:52:19;;;;;;;2.53;0.70;;;;;;;6.13;100.00;93734.81;2074638;28;20333;-94
2021/10/07 02:53:20;;;;;;;0.70;0.50;;;;;;;6.17;100.00;93732.94;2074361;28;20032;-93
2021/10/07 02:54:21;;;;;;;0.57;0.50;;;;;;;6.28;100.00;93736.41;2082299;28;20112;-93
2021/10/07 02:55:22;;;;;;;2.40;0.70;;;;;;;6.27;100.00;93737.53;2074363;28;20018;-93
2021/10/07 02:56:23;;;;;;;0.77;0.60;;;;;;;6.28;100.00;93735.66;2074160;28;20076;-92
2021/10/07 02:57:24;;;;;;;4.13;0.73;;;;;;;6.18;100.00;93729.13;2082285;28;20180;-92
2021/10/07 02:58:25;;;;;;;0.82;0.82;;;;;;;6.18;100.00;93737.09;2098668;28;20111;-93
2021/10/07 02:59:26;;;;;;;0.60;0.50;;;;;;;6.26;100.00;93735.25;2082556;28;20029;-93
2021/10/07 03:00:27;;;;;;;2.47;0.77;;;;;;;6.21;100.00;93740.91;2098640;28;20032;-93
2021/10/07 03:01:28;;;;;;;5.68;0.88;;;;;;;6.21;100.00;93733.72;2082627;28;20022;-94
2021/10/07 03:02:29;;;;;;;1.05;0.70;;;;;;;6.24;100.00;93737.53;2075548;28;20096;-92
2021/10/07 03:03:32;;;;;;;1.02;0.60;;;;;;;6.26;100.00;93735.25;2084116;28;20045;-93
2021/10/07 03:04:33;;;;;;;0.60;0.50;;;;;;;6.24;100.00;93740.19;2076348;28;20026;-93
2021/10/07 03:05:34;;;;;;;0.70;0.70;;;;;;;6.28;100.00;93741.72;2084283;28;20025;-93
2021/10/07 03:06:35;;;;;;;0.52;0.50;;;;;;;6.15;100.00;93735.22;2084380;28;20025;-94
2021/10/07 03:07:36;;;;;;;0.65;0.60;;;;;;;6.17;100.00;93735.59;2083884;28;20091;-93
2021/10/07 03:08:37;;;;;;;0.90;0.80;;;;;;;6.20;100.00;93745.47;2084135;28;20040;-94
2021/10/07 03:09:39;;;;;;;2.70;0.70;;;;;;;6.18;100.00;93739.75;2075585;28;20064;-94
2021/10/07 03:10:40;;;;;;;4.13;0.60;;;;;;;6.26;100.00;93743.97;2083893;28;20139;-92
2021/10/07 03:11:41;;;;;;;1.00;0.60;;;;;;;6.18;100.00;93742.41;2076348;28;20381;-93
2021/10/07 03:12:42;;;;;;;0.80;0.55;;;;;;;6.20;100.00;93737.50;2084640;28;20025;-95
2021/10/07 03:13:43;;;;;;;1.30;0.68;;;;;;;6.23;100.00;93747.41;2084572;28;20033;-94
2021/10/07 03:14:45;;;;;;;1.77;0.80;;;;;;;6.21;100.00;93740.91;2075807;28;20495;-94
2021/10/07 03:15:46;;;;;;;1.02;0.60;;;;;;;6.23;100.00;93742.09;2084446;28;20034;-92
2021/10/07 03:16:47;;;;;;;0.50;0.50;;;;;;;6.19;100.00;93743.97;2092039;28;20033;-92
2021/10/07 03:17:48;;;;;;;2.70;0.60;;;;;;;6.07;100.00;93751.47;2092250;28;20036;-93
2021/10/07 03:18:49;;;;;;;0.60;0.50;;;;;;;6.08;100.00;93750.34;2084012;28;20021;-94
2021/10/07 03:19:50;;;;;;;2.40;0.60;;;;;;;6.14;100.00;93746.94;2092089;28;20044;-93
2021/10/07 03:20:51;;;;;;;0.80;0.80;;;;;;;6.26;100.00;93751.19;2091902;28;20021;-94
2021/10/07 03:21:52;;;;;;;0.60;0.60;;;;;;;6.25;100.00;93750.41;2092388;28;20028;-93
2021/10/07 03:22:53;;;;;;;0.55;0.55;;;;;;;6.34;100.00;93744.03;2083612;28;20076;-93
2021/10/07 03:23:54;;;;;;;1.23;0.60;;;;;;;6.28;100.00;93746.28;2075583;28;20097;-92
2021/10/07 03:24:55;;;;;;;1.55;0.68;;;;;;;6.27;100.00;93750.03;2083987;28;20021;-93
2021/10/07 03:25:56;;;;;;;3.10;0.75;;;;;;;6.20;100.00;93750.03;2083939;28;20025;-92
2021/10/07 03:26:57;;;;;;;3.13;0.47;;;;;;;6.24;100.00;93751.56;2084014;28;20029;-93
2021/10/07 03:27:58;;;;;;;1.25;0.60;;;;;;;6.19;100.00;93756.44;2084031;28;20562;-93
2021/10/07 03:28:59;;;;;;;0.77;0.68;;;;;;;6.40;100.00;93745.94;2092384;28;20392;-92
2021/10/07 03:30:00;;;;;;;0.77;0.60;;;;;;;6.37;100.00;93751.25;2083913;28;20021;-92
2021/10/07 03:31:01;;;;;;;0.70;0.60;;;;;;;6.32;100.00;93739.06;2083873;28;20029;-93
2021/10/07 03:32:03;;;;;;;2.47;1.02;;;;;;;6.28;100.00;93752.34;2083729;28;20021;-92
2021/10/07 03:33:08;;;;;;;0.82;0.68;;;;;;;6.30;100.00;93752.72;2084096;28;20032;-93
2021/10/07 03:34:09;;;;;;;0.65;0.65;;;;;;;6.28;100.00;93755.00;2084365;28;20087;-94
2021/10/07 03:35:10;;;;;;;1.58;0.90;;;;;;;6.28;100.00;93748.94;2075827;28;20054;-93
2021/10/07 03:36:11;;;;;;;0.90;0.77;;;;;;;6.24;100.00;93756.88;2075518;28;20105;-93
2021/10/07 03:37:12;;;;;;;2.67;0.80;;;;;;;6.24;100.00;93759.53;2083640;28;20033;-94
2021/10/07 03:38:13;;;;;;;1.10;0.73;;;;;;;6.23;100.00;93758.00;2092127;28;20458;-92
2021/10/07 03:39:14;;;;;;;0.93;0.73;;;;;;;6.39;100.00;93754.28;2083925;28;20017;-92
2021/10/07 03:40:15;;;;;;;0.98;0.52;;;;;;;6.29;100.00;93756.50;2091871;28;20031;-94
2021/10/07 03:41:16;;;;;;;1.25;0.60;;;;;;;6.23;100.00;93765.97;2091918;28;20025;-94
2021/10/07 03:42:18;;;;;;;1.95;0.70;;;;;;;6.20;100.00;93764.06;2083951;28;20021;-94
2021/10/07 03:43:19;;;;;;;0.95;0.77;;;;;;;6.30;100.00;93765.22;2092164;28;20017;-93
2021/10/07 03:44:20;;;;;;;0.70;0.70;;;;;;;6.48;100.00;93763.41;2084418;28;20485;-92
2021/10/07 03:45:21;;;;;;;0.60;0.60;;;;;;;6.41;100.00;93765.28;2084349;28;20029;-94
2021/10/07 03:46:22;;;;;;;2.75;0.90;;;;;;;6.49;100.00;93761.50;2083931;28;20075;-93
2021/10/07 03:47:23;;;;;;;0.50;0.50;;;;;;;6.43;100.00;93771.75;2084461;28;20070;-93
2021/10/07 03:48:24;;;;;;;0.70;0.60;;;;;;;6.40;100.00;93771.72;2092787;28;20025;-93
2021/10/07 03:49:25;;;;;;;2.53;0.70;;;;;;;6.32;100.00;93768.25;2084021;28;20052;-94
2021/10/07 03:50:26;;;;;;;0.70;0.70;;;;;;;6.28;100.00;93765.63;2092378;28;20118;-94
2021/10/07 03:51:27;;;;;;;0.80;0.60;;;;;;;6.20;100.00;93771.25;2092158;28;20048;-93
2021/10/07 03:52:28;;;;;;;2.05;0.70;;;;;;;6.21;100.00;93772.78;2075505;28;20080;-93
2021/10/07 03:53:29;;;;;;;0.63;0.52;;;;;;;6.28;100.00;93770.94;2083723;28;20025;-94
2021/10/07 03:54:31;;;;;;;0.70;0.70;;;;;;;6.37;100.00;93770.59;2091848;28;20094;-95
2021/10/07 03:55:32;;;;;;;0.50;0.50;;;;;;;6.41;100.00;93771.38;2083876;28;20439;-94
2021/10/07 03:56:33;;;;;;;1.42;0.63;;;;;;;6.43;100.00;93771.75;2084028;28;20383;-93
2021/10/07 03:57:34;;;;;;;1.38;0.60;;;;;;;6.40;100.00;93769.06;2083695;28;20021;-94
2021/10/07 03:58:35;;;;;;;0.88;0.50;;;;;;;6.34;100.00;93778.53;2083884;28;20463;-93
2021/10/07 03:59:36;;;;;;;0.68;0.63;;;;;;;6.37;100.00;93769.84;2083318;28;20104;-93
2021/10/07 04:00:37;;;;;;;1.88;0.60;;;;;;;6.39;100.00;93772.88;2091685;28;20090;-93
2021/10/07 04:01:38;;;;;;;0.70;0.70;;;;;;;6.44;100.00;93767.19;2091687;28;20509;-93
2021/10/07 04:02:42;;;;;;;0.50;0.50;;;;;;;6.43;100.00;93774.41;2075126;28;20022;-91
2021/10/07 04:03:44;;;;;;;1.55;0.80;;;;;;;6.43;100.00;93781.59;2076228;28;20029;-93
2021/10/07 04:04:45;;;;;;;0.88;0.70;;;;;;;6.43;100.00;93771.00;2084229;28;20025;-93
2021/10/07 04:05:47;;;;;;;0.70;0.60;;;;;;;6.48;100.00;93774.03;2087213;28;20434;-92
2021/10/07 04:06:48;;;;;;;1.50;0.80;;;;;;;6.41;100.00;93784.66;2089594;28;20025;-91
2021/10/07 04:07:49;;;;;;;1.00;0.50;;;;;;;6.43;100.00;93785.03;2097905;28;20028;-92
2021/10/07 04:08:50;;;;;;;1.02;0.65;;;;;;;6.38;100.00;93780.06;2090435;28;20025;-92
2021/10/07 04:09:51;;;;;;;1.05;0.57;;;;;;;6.37;100.00;93775.91;2081806;28;20089;-91
2021/10/07 04:10:52;;;;;;;3.20;0.70;;;;;;;6.41;100.00;93782.00;2081695;28;20093;-90
2021/10/07 04:11:53;;;;;;;0.50;0.50;;;;;;;6.41;100.00;93781.19;2084003;28;20097;-92
2021/10/07 04:12:54;;;;;;;1.67;0.63;;;;;;;6.38;100.00;93784.63;2092257;28;20054;-93
2021/10/07 04:13:55;;;;;;;1.77;0.57;;;;;;;6.37;100.00;93783.88;2074746;28;20030;-92
2021/10/07 04:14:56;;;;;;;1.75;0.60;;;;;;;6.40;100.00;93793.72;2075445;28;20022;-92
2021/10/07 04:15:57;;;;;;;0.60;0.60;;;;;;;6.33;100.00;93784.97;2091796;28;20568;-92
2021/10/07 04:16:59;;;;;;;0.68;0.60;;;;;;;6.37;100.00;93781.22;2091267;28;20045;-93
2021/10/07 04:18:00;;;;;;;3.00;0.65;;;;;;;6.40;100.00;93790.31;2083493;28;20050;-92
2021/10/07 04:19:01;;;;;;;9.57;0.80;;;;;;;6.39;100.00;93789.56;2083309;28;20025;-93
2021/10/07 04:20:04;;;;;;;3.95;0.60;;;;;;;6.40;100.00;93790.31;2075447;28;20061;-92
2021/10/07 04:21:05;;;;;;;0.60;0.60;;;;;;;6.41;100.00;93789.16;2083833;28;20461;-92
2021/10/07 04:22:06;;;;;;;3.70;0.65;;;;;;;6.40;100.00;93792.97;2091588;28;20029;-92
2021/10/07 04:23:07;;;;;;;0.77;0.63;;;;;;;6.37;100.00;93791.84;2091697;28;20025;-91
2021/10/07 04:24:08;;;;;;;2.80;0.60;;;;;;;6.38;100.00;93795.25;2083180;28;20107;-92
2021/10/07 04:25:09;;;;;;;1.58;0.70;;;;;;;6.43;100.00;93787.69;2083408;28;20075;-93
2021/10/07 04:26:10;;;;;;;1.52;0.70;;;;;;;6.46;100.00;93791.50;2083258;28;20022;-92
2021/10/07 04:27:14;;;;;;;1.17;0.60;;;;;;;6.42;100.00;93799.44;2083100;28;20128;-92
2021/10/07 04:28:15;;;;;;;1.55;0.43;;;;;;;6.37;100.00;93794.47;2083597;28;20371;-91
2021/10/07 04:29:16;;;;;;;0.68;0.68;;;;;;;6.41;100.00;93789.97;2083086;28;20031;-92
2021/10/07 04:30:17;;;;;;;0.50;0.50;;;;;;;6.39;100.00;93792.22;2099462;28;20048;-92
2021/10/07 04:31:18;;;;;;;0.50;0.50;;;;;;;6.42;100.00;93793.38;2082925;28;20040;-92
2021/10/07 04:32:19;;;;;;;0.90;0.90;;;;;;;6.43;100.00;93797.53;2075086;28;20026;-92
2021/10/07 04:33:20;;;;;;;0.75;0.75;;;;;;;6.44;100.00;93791.09;2075324;28;20108;-92
2021/10/07 04:34:21;;;;;;;1.33;0.88;;;;;;;6.39;100.00;93794.88;2083078;28;20017;-93
2021/10/07 04:35:22;;;;;;;0.80;0.80;;;;;;;6.29;100.00;93795.56;2082975;28;20025;-93
2021/10/07 04:36:23;;;;;;;1.67;0.75;;;;;;;6.29;100.00;93801.66;2083550;28;20029;-93
2021/10/07 04:37:24;;;;;;;1.80;1.00;;;;;;;6.29;100.00;93796.34;2091217;28;20025;-92
2021/10/07 04:38:25;;;;;;;3.63;0.90;;;;;;;6.30;100.00;93795.19;2091291;28;20028;-94
2021/10/07 04:39:26;;;;;;;2.67;1.20;;;;;;;6.26;100.00;93798.97;2082997;28;20022;-93
2021/10/07 04:40:27;;;;;;;1.73;1.63;;;;;;;6.28;100.00;93802.78;2075289;28;20462;-95
2021/10/07 04:41:28;;;;;;;3.47;2.03;;;;;;;6.29;100.00;93799.00;2083084;28;20025;-94
2021/10/07 04:42:29;;;;;;;1.80;1.38;;;;;;;6.35;100.00;93796.72;2083008;28;20076;-94
2021/10/07 04:43:30;;;;;;;7.63;1.33;;;;;;;6.35;100.00;93798.63;2074948;28;20029;-93
2021/10/07 04:44:31;;;;;;;1.15;0.93;;;;;;;6.28;100.00;93804.69;2083316;28;20459;-93
2021/10/07 04:45:32;;;;;;;1.83;1.25;;;;;;;6.31;100.00;93795.94;2091199;28;20048;-93
2021/10/07 04:46:33;;;;;;;1.30;0.88;;;;;;;6.29;100.00;93792.91;2099421;28;20115;-92
2021/10/07 04:47:34;;;;;;;2.92;1.10;;;;;;;6.30;100.00;93803.16;2091342;28;20017;-94
2021/10/07 04:48:35;;;;;;;0.88;0.80;;;;;;;6.26;100.00;93797.06;2091461;28;20021;-93
2021/10/07 04:49:37;;;;;;;0.70;0.70;;;;;;;6.29;100.00;93806.94;2099532;28;20033;-94
2021/10/07 04:50:38;;;;;;;1.48;1.17;;;;;;;6.24;100.00;93801.25;2074880;28;20026;-93
2021/10/07 04:51:41;;;;;;;0.88;0.82;;;;;;;6.23;100.00;93802.34;2083288;28;20028;-94
2021/10/07 04:52:42;;;;;;;0.70;0.60;;;;;;;6.22;100.00;93798.19;2091623;28;20025;-94
2021/10/07 04:53:43;;;;;;;0.68;0.52;;;;;;;6.31;100.00;93806.56;2091371;28;20029;-93